createdAt,value
2022-12-03T00:01:27.790Z,8.32
2022-12-03T00:03:57.630Z,8.13
2022-12-03T00:06:32.927Z,9.23
2022-12-03T00:09:03.931Z,9.15
2022-12-03T00:11:36.056Z,8.15
2022-12-03T00:14:05.539Z,8.80
2022-12-03T00:16:35.000Z,8.25
2022-12-03T00:19:04.486Z,9.05
2022-12-03T00:21:34.018Z,9.07
2022-12-03T00:24:03.500Z,8.85
2022-12-03T00:26:32.936Z,8.40
2022-12-03T00:29:04.972Z,9.45
2022-12-03T00:31:34.500Z,9.88
2022-12-03T00:34:04.025Z,8.80
2022-12-03T00:36:33.741Z,9.13
2022-12-03T00:39:03.213Z,9.48
2022-12-03T00:41:32.667Z,9.18
2022-12-03T00:44:04.699Z,9.45
2022-12-03T00:46:34.210Z,9.02
2022-12-03T00:49:03.710Z,9.05
2022-12-03T00:51:33.164Z,9.52
2022-12-03T00:54:02.621Z,9.90
2022-12-03T00:56:32.309Z,9.10
2022-12-03T00:59:01.789Z,9.02
2022-12-03T01:01:33.873Z,9.13
2022-12-03T01:04:03.330Z,10.10
2022-12-03T01:06:32.776Z,9.73
2022-12-03T01:09:02.256Z,10.00
2022-12-03T01:11:41.452Z,10.25
2022-12-03T01:14:12.660Z,9.27
2022-12-03T01:16:44.763Z,10.02
2022-12-03T01:19:15.999Z,9.95
2022-12-03T01:21:45.603Z,9.55
2022-12-03T01:24:15.188Z,10.07
2022-12-03T01:26:44.663Z,10.38
2022-12-03T01:29:14.356Z,10.20
2022-12-03T01:31:58.882Z,10.13
2022-12-03T01:34:28.351Z,9.82
2022-12-03T01:36:57.826Z,10.10
2022-12-03T01:39:27.337Z,10.35
2022-12-03T01:41:57.890Z,10.15
2022-12-03T01:44:28.594Z,9.68
2022-12-03T01:47:01.658Z,9.98
2022-12-03T01:49:32.878Z,10.07
2022-12-03T01:52:02.358Z,9.48
2022-12-03T01:54:35.892Z,11.02
2022-12-03T01:57:05.343Z,10.82
2022-12-03T01:59:35.789Z,9.90
2022-12-03T02:02:13.890Z,11.25
2022-12-03T02:04:43.479Z,10.77
2022-12-03T02:07:21.125Z,11.10
2022-12-03T02:09:50.588Z,10.73
2022-12-03T02:12:21.311Z,10.98
2022-12-03T02:14:51.029Z,11.10
2022-12-03T02:17:23.450Z,11.40
2022-12-03T02:19:52.912Z,11.57
2022-12-03T02:22:30.632Z,11.38
2022-12-03T02:25:12.542Z,10.68
2022-12-03T02:27:42.025Z,11.43
2022-12-03T02:30:12.601Z,11.73
2022-12-03T02:32:42.112Z,11.15
2022-12-03T02:35:16.150Z,11.70
2022-12-03T02:37:45.600Z,12.32
2022-12-03T02:40:18.840Z,11.77
2022-12-03T02:42:45.816Z,11.75
2022-12-03T02:45:17.455Z,12.15
2022-12-03T02:47:47.732Z,11.63
2022-12-03T02:50:18.025Z,11.70
2022-12-03T02:52:47.714Z,12.20
2022-12-03T02:55:19.773Z,12.20
2022-12-03T02:57:49.695Z,11.57
2022-12-03T03:00:19.742Z,12.25
2022-12-03T03:02:49.685Z,12.27
2022-12-03T03:05:19.271Z,11.95
2022-12-03T03:07:48.760Z,11.80
2022-12-03T03:10:22.638Z,11.40
2022-12-03T03:12:52.201Z,12.15
2022-12-03T03:15:21.947Z,12.35
2022-12-03T03:17:51.426Z,12.55
2022-12-03T03:20:21.064Z,12.77
2022-12-03T03:22:50.697Z,12.50
2022-12-03T03:25:24.837Z,11.43
2022-12-03T03:27:54.370Z,12.70
2022-12-03T03:30:24.014Z,13.00
2022-12-03T03:32:53.568Z,12.32
2022-12-03T03:35:23.170Z,13.18
2022-12-03T03:37:53.535Z,12.40
2022-12-03T03:40:25.712Z,12.75
2022-12-03T03:42:55.245Z,12.98
2022-12-03T03:45:29.095Z,12.73
2022-12-03T03:47:59.248Z,12.07
2022-12-03T03:50:28.854Z,12.40
2022-12-03T03:52:58.628Z,12.60
2022-12-03T03:55:30.752Z,12.30
2022-12-03T03:58:00.337Z,11.93
2022-12-03T04:00:29.891Z,11.90
2022-12-03T04:02:59.461Z,12.25
2022-12-03T04:05:29.245Z,11.88
2022-12-03T04:07:58.901Z,11.55
2022-12-03T04:10:43.558Z,11.73
2022-12-03T04:13:13.125Z,12.50
2022-12-03T04:15:42.700Z,12.13
2022-12-03T04:18:24.711Z,11.43
2022-12-03T04:21:14.275Z,11.82
2022-12-03T04:23:41.206Z,11.60
2022-12-03T04:26:25.805Z,12.20
2022-12-03T04:28:55.386Z,11.55
2022-12-03T04:31:37.402Z,11.02
2022-12-03T04:34:19.517Z,11.05
2022-12-03T04:36:49.136Z,11.80
2022-12-03T04:39:18.719Z,10.82
2022-12-03T04:41:50.869Z,11.43
2022-12-03T04:44:32.872Z,10.65
2022-12-03T04:47:02.474Z,11.60
2022-12-03T04:49:32.015Z,11.80
2022-12-03T04:52:01.561Z,11.73
2022-12-03T04:54:31.255Z,12.05
2022-12-03T04:57:03.421Z,11.35
2022-12-03T04:59:33.011Z,11.20
2022-12-03T05:02:02.668Z,10.88
2022-12-03T05:04:32.209Z,11.68
2022-12-03T05:07:01.796Z,11.35
2022-12-03T05:09:31.365Z,11.35
2022-12-03T05:12:03.992Z,11.52
2022-12-03T05:14:33.522Z,11.65
2022-12-03T05:17:03.175Z,10.98
2022-12-03T05:19:45.068Z,10.70
2022-12-03T05:22:14.692Z,10.43
2022-12-03T05:24:44.246Z,11.38
2022-12-03T05:27:21.720Z,10.82
2022-12-03T05:29:53.183Z,11.35
2022-12-03T05:32:22.765Z,11.38
2022-12-03T05:34:52.805Z,11.10
2022-12-03T05:37:22.657Z,10.40
2022-12-03T05:39:52.340Z,10.60
2022-12-03T05:42:36.954Z,11.48
2022-12-03T05:45:07.246Z,11.70
2022-12-03T05:47:36.830Z,11.35
2022-12-03T05:50:06.957Z,11.57
2022-12-03T05:52:36.542Z,11.80
2022-12-03T05:55:06.674Z,11.18
2022-12-03T05:57:38.838Z,10.93
2022-12-03T06:00:10.138Z,10.75
2022-12-03T06:02:39.790Z,11.60
2022-12-03T06:05:10.188Z,11.40
2022-12-03T06:07:39.845Z,11.05
2022-12-03T06:10:11.035Z,11.07
2022-12-03T06:12:43.236Z,10.55
2022-12-03T06:15:13.526Z,11.00
2022-12-03T06:17:43.077Z,11.98
2022-12-03T06:20:13.799Z,11.13
2022-12-03T06:22:43.424Z,10.90
2022-12-03T06:25:12.975Z,10.90
2022-12-03T06:27:45.154Z,11.13
2022-12-03T06:30:15.713Z,10.50
2022-12-03T06:32:45.278Z,10.95
2022-12-03T06:35:14.834Z,11.00
2022-12-03T06:37:44.342Z,10.30
2022-12-03T06:40:16.798Z,10.70
2022-12-03T06:42:48.992Z,11.07
2022-12-03T06:45:18.566Z,10.60
2022-12-03T06:47:48.154Z,11.07
2022-12-03T06:50:17.704Z,9.95
2022-12-03T06:52:47.250Z,10.40
2022-12-03T06:55:16.933Z,10.38
2022-12-03T06:57:49.079Z,10.13
2022-12-03T07:00:19.184Z,10.57
2022-12-03T07:02:48.802Z,11.23
2022-12-03T07:05:18.561Z,10.52
2022-12-03T07:07:52.188Z,10.55
2022-12-03T07:10:22.153Z,10.57
2022-12-03T07:12:54.320Z,10.63
2022-12-03T07:15:23.959Z,11.23
2022-12-03T07:17:53.735Z,10.65
2022-12-03T07:20:23.289Z,11.40
2022-12-03T07:22:52.861Z,10.88
2022-12-03T07:25:23.757Z,11.30
2022-12-03T07:30:28.143Z,11.13
2022-12-03T07:32:57.672Z,11.20
2022-12-03T07:35:27.213Z,12.57
2022-12-03T07:37:56.718Z,12.02
2022-12-03T07:40:26.173Z,11.98
2022-12-03T07:42:58.309Z,11.43
2022-12-03T07:45:27.911Z,11.55
2022-12-03T07:47:57.461Z,11.43
2022-12-03T07:50:28.352Z,11.70
2022-12-03T07:52:57.954Z,11.27
2022-12-03T07:55:27.564Z,11.85
2022-12-03T07:57:59.702Z,11.70
2022-12-03T08:00:29.404Z,11.70
2022-12-03T08:02:59.056Z,11.75
2022-12-03T08:05:29.750Z,12.43
2022-12-03T08:07:59.613Z,12.68
2022-12-03T08:10:29.415Z,12.10
2022-12-03T08:13:02.164Z,12.40
2022-12-03T08:15:37.286Z,11.40
2022-12-03T08:18:14.861Z,12.57
2022-12-03T08:20:45.406Z,12.05
2022-12-03T08:23:16.544Z,12.70
2022-12-03T08:25:46.187Z,12.07
2022-12-03T08:28:21.612Z,12.82
2022-12-03T08:30:58.966Z,12.73
2022-12-03T08:33:29.595Z,13.40
2022-12-03T08:35:59.148Z,13.85
2022-12-03T08:38:28.702Z,13.02
2022-12-03T08:40:58.216Z,13.10
2022-12-03T08:43:31.111Z,12.75
2022-12-03T08:46:01.002Z,12.85
2022-12-03T08:48:32.821Z,13.77
2022-12-03T08:51:04.737Z,13.80
2022-12-03T08:53:36.066Z,13.98
2022-12-03T08:56:07.288Z,13.43
2022-12-03T08:58:41.134Z,14.10
2022-12-03T09:01:41.228Z,13.85
2022-12-03T09:04:24.520Z,13.90
2022-12-03T09:06:54.375Z,13.55
2022-12-03T09:09:24.101Z,13.52
2022-12-03T09:11:53.951Z,14.02
2022-12-03T09:14:26.219Z,13.52
2022-12-03T09:16:56.753Z,13.93
2022-12-03T09:19:26.760Z,13.60
2022-12-03T09:21:56.438Z,14.82
2022-12-03T09:24:26.028Z,13.98
2022-12-03T09:26:55.589Z,13.15
2022-12-03T09:29:27.729Z,14.50
2022-12-03T09:31:57.302Z,14.05
2022-12-03T09:34:26.887Z,13.90
2022-12-03T09:36:56.503Z,14.18
2022-12-03T09:39:26.264Z,13.85
2022-12-03T09:41:55.785Z,14.25
2022-12-03T09:44:27.912Z,14.15
2022-12-03T09:47:00.007Z,14.57
2022-12-03T09:49:29.793Z,15.07
2022-12-03T09:51:59.562Z,13.98
2022-12-03T09:54:30.050Z,13.95
2022-12-03T09:57:00.375Z,14.60
2022-12-03T09:59:33.539Z,13.82
2022-12-03T10:02:03.337Z,14.65
2022-12-03T10:04:32.953Z,13.68
2022-12-03T10:07:02.630Z,14.02
2022-12-03T10:09:32.419Z,13.82
2022-12-03T10:12:01.976Z,14.25
2022-12-03T10:14:34.181Z,14.20
2022-12-03T10:17:03.814Z,14.15
2022-12-03T10:19:35.573Z,14.20
2022-12-03T10:22:05.294Z,13.48
2022-12-03T10:24:35.330Z,14.38
2022-12-03T10:27:05.677Z,14.20
2022-12-03T10:29:38.366Z,13.75
2022-12-03T10:32:09.203Z,13.75
2022-12-03T10:34:39.849Z,14.20
2022-12-03T10:37:17.279Z,14.25
2022-12-03T10:39:56.903Z,14.77
2022-12-03T10:42:26.603Z,14.45
2022-12-03T10:45:20.811Z,14.18
2022-12-03T10:48:07.037Z,13.82
2022-12-03T10:50:36.587Z,13.05
2022-12-03T10:53:06.118Z,13.82
2022-12-03T10:55:38.793Z,14.27
2022-12-03T10:58:08.938Z,13.68
2022-12-03T11:00:41.164Z,14.73
2022-12-03T11:03:15.863Z,14.73
2022-12-03T11:05:45.473Z,13.57
2022-12-03T11:08:19.149Z,13.68
2022-12-03T11:10:48.935Z,13.90
2022-12-03T11:13:48.057Z,13.95
2022-12-03T11:17:12.878Z,13.23
2022-12-03T11:19:52.438Z,13.90
2022-12-03T11:22:46.933Z,13.73
2022-12-03T11:25:58.323Z,14.15
2022-12-03T11:31:11.733Z,14.32
2022-12-03T11:33:44.658Z,14.27
2022-12-03T11:36:36.425Z,13.80
2022-12-03T11:39:10.714Z,13.55
2022-12-03T11:41:40.311Z,14.40
2022-12-03T11:44:31.929Z,14.38
2022-12-03T11:47:02.827Z,13.82
2022-12-03T11:52:28.864Z,14.23
2022-12-03T11:55:01.940Z,14.30
2022-12-03T11:57:39.716Z,14.40
2022-12-03T12:00:23.388Z,13.77
2022-12-03T12:02:53.549Z,13.85
2022-12-03T12:05:26.146Z,13.90
2022-12-03T12:07:58.698Z,14.43
2022-12-03T12:10:41.939Z,14.73
2022-12-03T12:13:59.092Z,14.57
2022-12-03T12:16:47.637Z,14.38
2022-12-03T12:19:52.696Z,13.90
2022-12-03T12:22:32.465Z,14.70
2022-12-03T12:25:04.862Z,14.10
2022-12-03T12:27:36.488Z,14.10
2022-12-03T12:30:08.336Z,14.95
2022-12-03T12:32:48.596Z,14.55
2022-12-03T12:35:20.246Z,14.80
2022-12-03T12:37:58.949Z,14.82
2022-12-03T12:40:34.155Z,15.02
2022-12-03T12:43:11.575Z,15.57
2022-12-03T12:45:42.938Z,14.68
2022-12-03T12:48:24.842Z,16.55
2022-12-03T12:50:56.800Z,16.08
2022-12-03T12:53:27.209Z,15.63
2022-12-03T12:56:00.360Z,16.02
2022-12-03T12:58:32.658Z,15.63
2022-12-03T13:01:03.523Z,15.10
2022-12-03T13:03:35.632Z,16.30
2022-12-03T13:06:05.427Z,16.15
2022-12-03T13:08:36.424Z,15.35
2022-12-03T13:11:08.882Z,16.63
2022-12-03T13:13:44.018Z,16.55
2022-12-03T13:16:14.929Z,16.83
2022-12-03T13:18:47.860Z,17.05
2022-12-03T13:21:23.248Z,16.75
2022-12-03T13:23:53.991Z,16.67
2022-12-03T13:26:37.732Z,16.70
2022-12-03T13:29:10.039Z,16.15
2022-12-03T13:31:43.708Z,16.90
2022-12-03T13:34:15.065Z,16.65
2022-12-03T13:36:45.618Z,16.23
2022-12-03T13:39:17.048Z,17.10
2022-12-03T13:42:01.636Z,16.20
2022-12-03T13:44:31.612Z,16.17
2022-12-03T13:47:02.799Z,15.82
2022-12-03T13:49:32.412Z,16.80
2022-12-03T13:52:01.970Z,16.65
2022-12-03T13:54:32.452Z,16.73
2022-12-03T13:57:05.968Z,16.92
2022-12-03T13:59:35.584Z,15.27
2022-12-03T14:02:05.211Z,16.80
2022-12-03T14:04:35.057Z,16.52
2022-12-03T14:07:04.591Z,17.52
2022-12-03T14:09:34.221Z,17.27
2022-12-03T14:12:19.282Z,16.45
2022-12-03T14:14:48.839Z,16.05
2022-12-03T14:17:18.452Z,16.00
2022-12-03T14:19:48.002Z,17.13
2022-12-03T14:22:19.324Z,16.52
2022-12-03T14:24:48.901Z,16.52
2022-12-03T14:27:20.978Z,16.85
2022-12-03T14:29:50.518Z,17.13
2022-12-03T14:32:20.069Z,16.58
2022-12-03T14:34:49.634Z,16.75
2022-12-03T14:37:19.098Z,16.52
2022-12-03T14:39:48.648Z,17.60
2022-12-03T14:42:21.035Z,17.42
2022-12-03T14:44:51.291Z,17.92
2022-12-03T14:47:22.588Z,16.50
2022-12-03T14:49:52.754Z,16.08
2022-12-03T14:52:22.704Z,16.88
2022-12-03T14:54:52.240Z,16.48
2022-12-03T14:57:24.366Z,17.10
2022-12-03T14:59:54.382Z,16.92
2022-12-03T15:02:24.256Z,17.30
2022-12-03T15:04:53.877Z,17.00
2022-12-03T15:07:23.480Z,22.60
2022-12-03T15:09:53.370Z,16.58
2022-12-03T15:12:25.814Z,17.33
2022-12-03T15:14:55.350Z,16.15
2022-12-03T15:17:31.334Z,17.10
2022-12-03T15:20:01.677Z,17.48
2022-12-03T15:22:31.169Z,17.15
2022-12-03T15:25:02.521Z,17.42
2022-12-03T15:27:34.646Z,17.05
2022-12-03T15:30:04.183Z,17.80
2022-12-03T15:32:33.739Z,17.55
2022-12-03T15:35:03.317Z,18.02
2022-12-03T15:37:32.843Z,17.08
2022-12-03T15:40:02.323Z,18.45
2022-12-03T15:42:34.392Z,17.50
2022-12-03T15:45:03.899Z,16.73
2022-12-03T15:47:33.715Z,17.50
2022-12-03T15:50:03.186Z,17.45
2022-12-03T15:52:32.620Z,18.02
2022-12-03T15:55:02.128Z,17.35
2022-12-03T15:57:34.161Z,17.35
2022-12-03T16:00:03.717Z,17.88
2022-12-03T16:02:34.004Z,17.15
2022-12-03T16:05:03.727Z,17.73
2022-12-03T16:07:33.293Z,17.02
2022-12-03T16:10:02.924Z,17.85
2022-12-03T16:12:35.053Z,17.80
2022-12-03T16:15:04.530Z,17.48
2022-12-03T16:17:33.961Z,17.15
2022-12-03T16:20:03.493Z,17.70
2022-12-03T16:22:32.933Z,16.83
2022-12-03T16:25:03.261Z,17.00
2022-12-03T16:27:37.077Z,17.75
2022-12-03T16:30:07.560Z,17.38
2022-12-03T16:32:37.271Z,17.77
2022-12-03T16:35:07.117Z,18.20
2022-12-03T16:37:36.582Z,18.23
2022-12-03T16:40:06.364Z,17.90
2022-12-03T16:42:39.114Z,17.90
2022-12-03T16:45:22.692Z,17.55
2022-12-03T16:47:52.288Z,17.13
2022-12-03T16:50:29.072Z,16.88
2022-12-03T16:52:59.541Z,17.27
2022-12-03T16:55:29.109Z,17.65
2022-12-03T16:58:01.194Z,17.48
2022-12-03T17:00:31.112Z,16.73
2022-12-03T17:03:00.619Z,17.75
2022-12-03T17:05:30.150Z,17.15
2022-12-03T17:07:59.639Z,17.92
2022-12-03T17:10:29.229Z,17.55
2022-12-03T17:13:09.229Z,16.75
2022-12-03T17:15:39.790Z,17.73
2022-12-03T17:18:09.489Z,17.25
2022-12-03T17:20:38.996Z,17.40
2022-12-03T17:23:08.475Z,16.98
2022-12-03T17:25:38.008Z,16.92
2022-12-03T17:28:10.114Z,17.77
2022-12-03T17:30:39.610Z,17.08
2022-12-03T17:33:09.038Z,17.38
2022-12-03T17:35:38.575Z,17.08
2022-12-03T17:38:09.106Z,17.48
2022-12-03T17:40:38.921Z,17.70
2022-12-03T17:43:11.023Z,17.48
2022-12-03T17:45:40.662Z,17.73
2022-12-03T17:48:10.314Z,18.02
2022-12-03T17:50:39.798Z,18.25
2022-12-03T17:53:10.530Z,17.60
2022-12-03T17:55:44.703Z,18.40
2022-12-03T17:58:17.245Z,18.60
2022-12-03T18:00:46.963Z,18.65
2022-12-03T18:03:16.426Z,18.08
2022-12-03T18:05:45.908Z,17.98
2022-12-03T18:08:15.457Z,18.20
2022-12-03T18:10:44.915Z,17.55
2022-12-03T18:13:16.958Z,18.73
2022-12-03T18:15:46.458Z,18.50
2022-12-03T18:18:16.001Z,18.10
2022-12-03T18:20:45.757Z,18.27
2022-12-03T18:23:15.222Z,18.15
2022-12-03T18:25:44.665Z,18.60
2022-12-03T18:28:16.689Z,18.58
2022-12-03T18:30:52.007Z,18.80
2022-12-03T18:33:23.371Z,18.50
2022-12-03T18:35:55.429Z,18.20
2022-12-03T18:38:24.974Z,18.13
2022-12-03T18:40:54.441Z,17.98
2022-12-03T18:43:27.986Z,17.40
2022-12-03T18:45:57.456Z,16.77
2022-12-03T18:48:27.544Z,17.77
2022-12-03T18:50:57.007Z,17.92
2022-12-03T18:53:26.503Z,17.70
2022-12-03T18:55:56.649Z,17.60
2022-12-03T18:58:28.703Z,17.87
2022-12-03T19:00:58.266Z,17.35
2022-12-03T19:03:27.851Z,17.83
2022-12-03T19:05:57.332Z,17.70
2022-12-03T19:08:26.952Z,17.25
2022-12-03T19:10:59.684Z,17.60
2022-12-03T19:13:31.741Z,18.20
2022-12-03T19:16:04.237Z,17.70
2022-12-03T19:18:33.735Z,17.38
2022-12-03T19:21:03.247Z,17.70
2022-12-03T19:23:32.722Z,17.65
2022-12-03T19:26:03.033Z,17.33
2022-12-03T19:28:35.223Z,17.50
2022-12-03T19:31:05.852Z,18.33
2022-12-03T19:33:35.696Z,17.50
2022-12-03T19:36:05.651Z,17.58
2022-12-03T19:38:35.184Z,17.08
2022-12-03T19:41:06.374Z,16.58
2022-12-03T19:43:38.841Z,17.55
2022-12-03T19:46:09.430Z,17.83
2022-12-03T19:48:39.837Z,17.08
2022-12-03T19:51:33.145Z,16.40
2022-12-03T19:53:59.297Z,16.58
2022-12-03T19:56:30.345Z,16.00
2022-12-03T19:59:02.747Z,15.65
2022-12-03T20:01:33.311Z,16.17
2022-12-03T20:04:03.475Z,16.48
2022-12-03T20:06:35.488Z,16.85
2022-12-03T20:09:07.793Z,16.15
2022-12-03T20:11:37.616Z,16.30
2022-12-03T20:14:10.563Z,16.48
2022-12-03T20:16:40.173Z,16.60
2022-12-03T20:19:10.308Z,15.82
2022-12-03T20:21:39.972Z,16.45
2022-12-03T20:24:10.099Z,15.65
2022-12-03T20:26:39.596Z,15.80
2022-12-03T20:29:11.640Z,15.98
2022-12-03T20:31:41.222Z,14.80
2022-12-03T20:34:10.743Z,15.82
2022-12-03T20:36:40.205Z,15.65
2022-12-03T20:39:10.055Z,15.82
2022-12-03T20:41:42.245Z,15.88
2022-12-03T20:44:14.327Z,15.13
2022-12-03T20:46:44.105Z,15.45
2022-12-03T20:49:13.654Z,15.43
2022-12-03T20:51:43.580Z,14.30
2022-12-03T20:54:13.081Z,15.93
2022-12-03T20:56:42.564Z,15.32
2022-12-03T20:59:16.530Z,15.10
2022-12-03T21:01:46.145Z,14.13
2022-12-03T21:04:16.211Z,14.68
2022-12-03T21:06:45.665Z,14.27
2022-12-03T21:09:15.314Z,13.50
2022-12-03T21:11:44.786Z,14.55
2022-12-03T21:14:16.855Z,13.90
2022-12-03T21:19:38.653Z,13.30
2022-12-03T21:22:08.294Z,13.45
2022-12-03T21:24:37.788Z,12.60
2022-12-03T21:27:07.250Z,12.25
2022-12-03T21:29:39.458Z,12.93
2022-12-03T21:32:08.924Z,12.70
2022-12-03T21:34:38.378Z,12.70
2022-12-03T21:37:07.856Z,12.52
2022-12-03T21:39:37.425Z,12.35
2022-12-03T21:42:33.909Z,12.48
2022-12-03T21:44:59.337Z,12.40
2022-12-03T21:47:33.474Z,12.77
2022-12-03T21:50:07.134Z,11.63
2022-12-03T21:52:36.731Z,11.85
2022-12-03T21:55:06.367Z,11.85
2022-12-03T21:57:37.849Z,11.52
2022-12-03T22:00:11.376Z,11.32
2022-12-03T22:02:41.182Z,11.18
2022-12-03T22:05:11.374Z,11.50
2022-12-03T22:07:41.309Z,11.57
2022-12-03T22:10:12.474Z,11.43
2022-12-03T22:15:18.803Z,11.65
2022-12-03T22:17:49.078Z,11.18
2022-12-03T22:20:18.665Z,11.68
2022-12-03T22:22:48.146Z,11.60
2022-12-03T22:25:17.853Z,11.57
2022-12-03T22:27:47.300Z,10.98
2022-12-03T22:30:19.567Z,11.55
2022-12-03T22:32:49.022Z,10.80
2022-12-03T22:35:18.584Z,11.35
2022-12-03T22:37:48.037Z,11.10
2022-12-03T22:40:17.926Z,11.07
2022-12-03T22:42:50.975Z,11.55
2022-12-03T22:45:23.303Z,10.88
2022-12-03T22:47:52.728Z,10.82
2022-12-03T22:50:22.283Z,10.75
2022-12-03T22:52:51.745Z,11.02
2022-12-03T22:55:21.222Z,11.07
2022-12-03T22:57:50.690Z,11.25
2022-12-03T23:00:33.085Z,11.57
2022-12-03T23:03:02.642Z,11.57
2022-12-03T23:05:37.000Z,10.48
2022-12-03T23:08:06.735Z,11.07
2022-12-03T23:10:36.824Z,11.13
2022-12-03T23:13:06.477Z,11.02
2022-12-03T23:15:38.637Z,11.73
2022-12-03T23:18:08.266Z,10.55
2022-12-03T23:20:37.735Z,10.63
2022-12-03T23:23:07.199Z,10.60
2022-12-03T23:25:37.342Z,10.80
2022-12-03T23:28:06.876Z,10.37
2022-12-03T23:30:40.369Z,11.00
2022-12-03T23:33:09.838Z,10.98
2022-12-03T23:35:39.290Z,11.57
2022-12-03T23:38:08.721Z,11.68
2022-12-03T23:40:39.599Z,10.85
2022-12-03T23:43:12.045Z,11.20
2022-12-03T23:45:44.352Z,11.13
2022-12-03T23:48:13.842Z,10.73
2022-12-03T23:50:43.296Z,11.00
2022-12-03T23:53:12.764Z,10.85
2022-12-03T23:55:42.508Z,11.40
2022-12-03T23:58:11.954Z,11.55
